Nebraska City, Nebraska
Current Conditions -  °F | °C
As of 5:35 PM on Sunday 21 Dec 2014 (Local Time) from KAFK Reporting Station
Overcast Overcast  
Wind Chill: 34°   Ceiling: 800
Heat Index: 42°   Visibility: 7mi
Dew Point: 42°   Wind: 15mph
Humidity: 99%   Direction: 170°S
Pressure: 29.73"   Gusts: 21mph
Location:  40.68°N, 95.86°W
Report Text: KAFK 212335Z AUTO 17013G18KT 7SM OVC008 05/05 A2973 RMK AO2 T00540053
Loading
Personal Weather Stations






























Interactive Weather Map New forecast layout! Learn more

10-Day Weather Forecast

Advertisements
Track Severe Weather on mobile